Crown Princess — ZCDM6 — position and weather

sailwx.info

Track history (hours):
 
Tides and Currents Weather Stations Pressure Air Temp Water Temp Dewpoint Dewpoint Depression Visibility Wind Speed Wind Dir Waves Ship Positions

Crown Princess

Last reported at 2014-Oct-19 05:20 UTC. Time now 2014-Oct-21 15:17 UTC.
Position N 32°48' W 119°15'.

Type: Ship. MMSI: 310500000.

Date/timePositionNaut miles runAvg speedWind from/ knotsBaromVisibWave heightAir tempDewpointWater temp
2014-Oct-19 05:20N 32°48' W 119°15'6716.4
2014-Oct-19 01:15N 33°35' W 118°17'811.1
2014-Oct-19 00:32N 33°42' W 118°15'3 3.0
2014-Oct-18 23:30N 33°45' W 118°17'0 0.0
2014-Oct-18 22:33N 33°45' W 118°17'0 0.0
2014-Oct-18 21:33N 33°45' W 118°17'0 0.0
2014-Oct-18 20:32N 33°45' W 118°17'0 0.0
2014-Oct-18 19:32N 33°45' W 118°17'0 0.0
2014-Oct-18 18:31N 33°45' W 118°17'0 0.0
2014-Oct-18 17:31N 33°45' W 118°17'0 0.0
2014-Oct-18 16:33N 33°45' W 118°17'0 0.0
2014-Oct-18 15:33N 33°45' W 118°17'0 0.0
2014-Oct-18 14:33N 33°45' W 118°17'0 0.0
2014-Oct-18 13:32N 33°45' W 118°17'5 4.7
2014-Oct-18 12:34N 33°41' W 118°13'2311.6
2014-Oct-18 10:33N 33°20' W 118°03'1313.4
2014-Oct-18 09:33N 33°08' W 117°56'1313.0
2014-Oct-18 08:33N 32°55' W 117°51'1312.9
2014-Oct-18 07:33N 32°43' W 117°48'1212.4
2014-Oct-18 06:34N 32°31' W 117°42'1212.4
2014-Oct-18 05:33N 32°21' W 117°34'21 0.9
2014-Oct-17 06:16N 31°60' W 117°39'36 9.4
2014-Oct-17 02:26N 32°32' W 117°20'1011.1
2014-Oct-17 01:33N 32°41' W 117°14'4 3.7
2014-Oct-17 00:32N 32°43' W 117°10'0 0.0
2014-Oct-16 23:32N 32°43' W 117°10'0 0.0
2014-Oct-16 22:31N 32°43' W 117°10'0 0.0
2014-Oct-16 21:31N 32°43' W 117°10'0 0.0
2014-Oct-16 20:31N 32°43' W 117°10'0 0.0
2014-Oct-16 19:33N 32°43' W 117°10'0 0.0
2014-Oct-16 18:33N 32°43' W 117°10'0 0.0
2014-Oct-16 17:32N 32°43' W 117°10'0 0.0
2014-Oct-16 16:32N 32°43' W 117°10'0 0.0
2014-Oct-16 15:31N 32°43' W 117°10'0 0.0
2014-Oct-16 14:31N 32°43' W 117°10'1 0.5
2014-Oct-16 13:33N 32°43' W 117°11'8 8.1
2014-Oct-16 12:33N 32°36' W 117°17'1313.1
2014-Oct-16 11:33N 32°42' W 117°31'1313.2
2014-Oct-16 10:33N 32°51' W 117°42'1514.8
2014-Oct-16 09:34N 33°03' W 117°52'1515.4
2014-Oct-16 08:33N 33°15' W 118°03'1313.3
2014-Oct-16 07:33N 33°28' W 118°10'8014.6
2014-Oct-16 02:07N 34°06' W 119°34'814.7
2014-Oct-16 01:33N 34°12' W 119°41'1211.3
2014-Oct-16 00:32N 34°24' W 119°41'0 0.1
2014-Oct-15 23:26N 34°24' W 119°41'0 0.0
2014-Oct-15 22:29N 34°24' W 119°41'0 0.0
2014-Oct-15 21:31N 34°24' W 119°41'0 0.0
2014-Oct-15 20:31N 34°24' W 119°41'0 0.0
2014-Oct-15 19:27N 34°24' W 119°41'0 0.0
2014-Oct-15 18:33N 34°24' W 119°41'0 0.0
2014-Oct-15 14:28N 34°24' W 119°41'2 2.5
2014-Oct-15 13:33N 34°21' W 119°41'9 8.7
2014-Oct-15 12:33N 34°19' W 119°51'1010.1
2014-Oct-15 11:33N 34°19' W 120°03'118 9.1
2014-Oct-14 22:31N 35°30' W 121°59'9 9.2
2014-Oct-14 21:33N 35°36' W 122°06'10 9.6
2014-Oct-14 20:33N 35°44' W 122°14'10 9.8
2014-Oct-14 19:33N 35°51' W 122°22'10 9.6
2014-Oct-14 18:33N 35°59' W 122°29'10 9.7
2014-Oct-14 17:33N 36°06' W 122°37'9 9.3
2014-Oct-14 16:33N 36°13' W 122°44'10 9.5
2014-Oct-14 15:29N 36°21' W 122°52'9 9.7
2014-Oct-14 14:33N 36°28' W 122°59'9 9.3
2014-Oct-14 13:33N 36°37' W 122°58'10 9.8
2014-Oct-14 12:33N 36°47' W 122°57'10 9.9
2014-Oct-14 11:32N 36°57' W 122°55'1110.9
2014-Oct-14 10:33N 37°07' W 122°51'1212.1
2014-Oct-14 09:33N 37°18' W 122°44'1211.8
2014-Oct-14 08:33N 37°30' W 122°43'1211.6
2014-Oct-14 07:33N 37°41' W 122°43'9 9.5
2014-Oct-14 06:33N 37°47' W 122°34'8 7.7
2014-Oct-14 05:33N 37°48' W 122°24'0 0.0
2014-Oct-14 04:32N 37°48' W 122°24'0 0.0
2014-Oct-14 03:32N 37°48' W 122°24'0 0.0
2014-Oct-14 02:31N 37°48' W 122°24'0 0.0
2014-Oct-14 01:33N 37°48' W 122°24'0 0.0
2014-Oct-14 00:33N 37°48' W 122°24'0 0.0
2014-Oct-13 23:33N 37°48' W 122°24'0 0.0
2014-Oct-13 22:33N 37°48' W 122°24'0 0.0
2014-Oct-13 21:32N 37°48' W 122°24'0 0.0
2014-Oct-13 20:32N 37°48' W 122°24'0 0.0
2014-Oct-13 19:31N 37°48' W 122°24'0 0.0
2014-Oct-13 18:28N 37°48' W 122°24'0 0.0
2014-Oct-13 17:33N 37°48' W 122°24'0 0.0
2014-Oct-13 16:33N 37°48' W 122°24'0 0.0
2014-Oct-13 15:26N 37°48' W 122°24'0 0.0
2014-Oct-13 14:32N 37°48' W 122°24'0 0.2
2014-Oct-13 13:33N 37°48' W 122°24'7 7.3
2014-Oct-13 12:33N 37°47' W 122°33'10 9.8
2014-Oct-13 11:33N 37°39' W 122°40'1010.4
2014-Oct-13 10:33N 37°29' W 122°40'10 9.7
2014-Oct-13 09:33N 37°19' W 122°40'1010.4
2014-Oct-13 08:33N 37°10' W 122°45'1110.9
2014-Oct-13 07:33N 36°60' W 122°51'1111.0
2014-Oct-13 06:33N 36°49' W 122°53'1010.4
2014-Oct-13 05:33N 36°38' W 122°52'1110.6
2014-Oct-13 04:34N 36°28' W 122°48'1010.1
2014-Oct-13 03:33N 36°19' W 122°43'1010.1
2014-Oct-13 02:33N 36°10' W 122°39'1010.3
2014-Oct-13 01:33N 36°02' W 122°31'1110.9
2014-Oct-13 00:34N 35°53' W 122°23'1110.7
2014-Oct-12 23:34N 35°44' W 122°16'1010.3
2014-Oct-12 22:34N 35°35' W 122°10'1010.4
2014-Oct-12 21:34N 35°25' W 122°04'1111.0
2014-Oct-12 20:33N 35°16' W 121°57'1111.3
2014-Oct-12 19:34N 35°06' W 121°51'1111.3
2014-Oct-12 18:33N 34°56' W 121°44'1211.7
2014-Oct-12 17:34N 34°46' W 121°37'1212.0
2014-Oct-12 16:34N 34°35' W 121°30'1211.7
2014-Oct-12 15:33N 34°25' W 121°23'1111.3
2014-Oct-12 14:33N 34°15' W 121°17'1111.1
2014-Oct-12 13:34N 34°06' W 121°10'1211.2
2014-Oct-12 12:30N 33°55' W 121°03'1111.2
2014-Oct-12 11:33N 33°46' W 120°57'1010.5
2014-Oct-12 10:34N 33°38' W 120°49'1110.7
2014-Oct-12 09:33N 33°34' W 120°37'1111.1
2014-Oct-12 08:34N 33°33' W 120°24'1312.6
2014-Oct-12 07:33N 33°35' W 120°09'1313.2
2014-Oct-12 06:33N 33°37' W 119°53'1413.0
2014-Oct-12 05:27N 33°39' W 119°36'1312.6
2014-Oct-12 04:24N 33°41' W 119°20'1112.9
2014-Oct-12 03:34N 33°43' W 119°08'1313.1
2014-Oct-12 02:33N 33°42' W 118°52'1313.0
2014-Oct-12 01:34N 33°42' W 118°36'1312.5
2014-Oct-12 00:33N 33°38' W 118°21'7 6.8
2014-Oct-11 23:33N 33°44' W 118°16'1 1.2
2014-Oct-11 22:31N 33°45' W 118°17'0 0.0
2014-Oct-11 21:29N 33°45' W 118°17'0 0.0
2014-Oct-11 20:31N 33°45' W 118°17'0 0.0
2014-Oct-11 19:10N 33°45' W 118°17'0 0.0
2014-Oct-11 18:31N 33°45' W 118°17'0 0.0
2014-Oct-11 17:09N 33°45' W 118°17'0 0.0
2014-Oct-11 16:33N 33°45' W 118°17'0 0.0
2014-Oct-11 15:32N 33°45' W 118°17'0 0.0
2014-Oct-11 14:32N 33°45' W 118°17'0 0.0
2014-Oct-11 13:31N 33°45' W 118°17'17 8.0
2014-Oct-11 11:26N 33°30' W 118°07'1011.4
2014-Oct-11 10:33N 33°21' W 118°03'1111.4
2014-Oct-11 09:33N 33°10' W 117°57'1111.1
2014-Oct-11 08:33N 33°00' W 117°52'1111.3
2014-Oct-11 07:33N 32°49' W 117°49'1111.4
2014-Oct-11 06:33N 32°38' W 117°46'1111.5
2014-Oct-11 05:33N 32°28' W 117°40'1312.9
2014-Oct-11 04:33N 32°17' W 117°31'1313.1
2014-Oct-11 03:33N 32°08' W 117°20'1313.3
2014-Oct-11 02:33N 32°00' W 117°07'1413.1
2014-Oct-11 01:31N 31°55' W 116°53'10 0.7
2014-Oct-10 12:17N 31°45' W 116°49'20 9.6
2014-Oct-10 10:09N 31°37' W 117°11'9 9.3
2014-Oct-10 09:12N 31°41' W 117°21'6 9.8
2014-Oct-10 08:33N 31°44' W 117°28'18 9.1
2014-Oct-10 06:33N 31°60' W 117°38'23 9.4
2014-Oct-10 04:07N 32°22' W 117°31'5 8.9
2014-Oct-10 03:33N 32°26' W 117°28'11 9.2
2014-Oct-10 02:25N 32°33' W 117°19'910.6
2014-Oct-10 01:33N 32°41' W 117°14'4 3.5
2014-Oct-10 00:32N 32°43' W 117°10'0 0.0
2014-Oct-09 23:32N 32°43' W 117°10'0 0.0
2014-Oct-09 22:31N 32°43' W 117°10'0 0.0
2014-Oct-09 21:31N 32°43' W 117°10'0 0.0
2014-Oct-09 20:33N 32°43' W 117°10'0 0.0
2014-Oct-09 19:33N 32°43' W 117°10'0 0.0
2014-Oct-09 18:33N 32°43' W 117°10'0 0.0
2014-Oct-09 17:32N 32°43' W 117°10'0 0.0
2014-Oct-09 16:32N 32°43' W 117°10'0 0.0
2014-Oct-09 15:31N 32°43' W 117°10'0 0.0
2014-Oct-09 14:28N 32°43' W 117°10'1 1.2
2014-Oct-09 13:33N 32°43' W 117°12'8 8.5
2014-Oct-09 12:33N 32°36' W 117°18'1313.2
2014-Oct-09 11:33N 32°42' W 117°32'1414.0
2014-Oct-09 10:33N 32°53' W 117°43'1615.7
2014-Oct-09 09:33N 33°05' W 117°54'1616.0
2014-Oct-09 08:33N 33°18' W 118°05'1413.7
2014-Oct-09 07:34N 33°31' W 118°12'1312.6
2014-Oct-09 06:33N 33°38' W 118°24'1212.0
2014-Oct-09 05:34N 33°44' W 118°37'  
Track history (hours):
 
Tides and Currents Weather Stations Pressure Air Temp Water Temp Dewpoint Dewpoint Depression Visibility Wind Speed Wind Dir Waves Ship Positions

Crown Princess

Last reported at 2014-Oct-19 05:20 UTC. Time now 2014-Oct-21 15:17 UTC.
Position N 32°48' W 119°15'.

Type: Ship. MMSI: 310500000.

Date/timePositionNaut miles runAvg speedWind from/ knotsBaromVisibWave heightAir tempDewpointWater temp
2014-Oct-19 05:20N 32°48' W 119°15'6716.4
2014-Oct-19 01:15N 33°35' W 118°17'811.1
2014-Oct-19 00:32N 33°42' W 118°15'3 3.0
2014-Oct-18 23:30N 33°45' W 118°17'0 0.0
2014-Oct-18 22:33N 33°45' W 118°17'0 0.0
2014-Oct-18 21:33N 33°45' W 118°17'0 0.0
2014-Oct-18 20:32N 33°45' W 118°17'0 0.0
2014-Oct-18 19:32N 33°45' W 118°17'0 0.0
2014-Oct-18 18:31N 33°45' W 118°17'0 0.0
2014-Oct-18 17:31N 33°45' W 118°17'0 0.0
2014-Oct-18 16:33N 33°45' W 118°17'0 0.0
2014-Oct-18 15:33N 33°45' W 118°17'0 0.0
2014-Oct-18 14:33N 33°45' W 118°17'0 0.0
2014-Oct-18 13:32N 33°45' W 118°17'5 4.7
2014-Oct-18 12:34N 33°41' W 118°13'2311.6
2014-Oct-18 10:33N 33°20' W 118°03'1313.4
2014-Oct-18 09:33N 33°08' W 117°56'1313.0
2014-Oct-18 08:33N 32°55' W 117°51'1312.9
2014-Oct-18 07:33N 32°43' W 117°48'1212.4
2014-Oct-18 06:34N 32°31' W 117°42'1212.4
2014-Oct-18 05:33N 32°21' W 117°34'21 0.9
2014-Oct-17 06:16N 31°60' W 117°39'36 9.4
2014-Oct-17 02:26N 32°32' W 117°20'1011.1
2014-Oct-17 01:33N 32°41' W 117°14'4 3.7
2014-Oct-17 00:32N 32°43' W 117°10'0 0.0
2014-Oct-16 23:32N 32°43' W 117°10'0 0.0
2014-Oct-16 22:31N 32°43' W 117°10'0 0.0
2014-Oct-16 21:31N 32°43' W 117°10'0 0.0
2014-Oct-16 20:31N 32°43' W 117°10'0 0.0
2014-Oct-16 19:33N 32°43' W 117°10'0 0.0
2014-Oct-16 18:33N 32°43' W 117°10'0 0.0
2014-Oct-16 17:32N 32°43' W 117°10'0 0.0
2014-Oct-16 16:32N 32°43' W 117°10'0 0.0
2014-Oct-16 15:31N 32°43' W 117°10'0 0.0
2014-Oct-16 14:31N 32°43' W 117°10'1 0.5
2014-Oct-16 13:33N 32°43' W 117°11'8 8.1
2014-Oct-16 12:33N 32°36' W 117°17'1313.1
2014-Oct-16 11:33N 32°42' W 117°31'1313.2
2014-Oct-16 10:33N 32°51' W 117°42'1514.8
2014-Oct-16 09:34N 33°03' W 117°52'1515.4
2014-Oct-16 08:33N 33°15' W 118°03'1313.3
2014-Oct-16 07:33N 33°28' W 118°10'8014.6
2014-Oct-16 02:07N 34°06' W 119°34'814.7
2014-Oct-16 01:33N 34°12' W 119°41'1211.3
2014-Oct-16 00:32N 34°24' W 119°41'0 0.1
2014-Oct-15 23:26N 34°24' W 119°41'0 0.0
2014-Oct-15 22:29N 34°24' W 119°41'0 0.0
2014-Oct-15 21:31N 34°24' W 119°41'0 0.0
2014-Oct-15 20:31N 34°24' W 119°41'0 0.0
2014-Oct-15 19:27N 34°24' W 119°41'0 0.0
2014-Oct-15 18:33N 34°24' W 119°41'0 0.0
2014-Oct-15 14:28N 34°24' W 119°41'2 2.5
2014-Oct-15 13:33N 34°21' W 119°41'9 8.7
2014-Oct-15 12:33N 34°19' W 119°51'1010.1
2014-Oct-15 11:33N 34°19' W 120°03'118 9.1
2014-Oct-14 22:31N 35°30' W 121°59'9 9.2
2014-Oct-14 21:33N 35°36' W 122°06'10 9.6
2014-Oct-14 20:33N 35°44' W 122°14'10 9.8
2014-Oct-14 19:33N 35°51' W 122°22'10 9.6
2014-Oct-14 18:33N 35°59' W 122°29'10 9.7
2014-Oct-14 17:33N 36°06' W 122°37'9 9.3
2014-Oct-14 16:33N 36°13' W 122°44'10 9.5
2014-Oct-14 15:29N 36°21' W 122°52'9 9.7
2014-Oct-14 14:33N 36°28' W 122°59'9 9.3
2014-Oct-14 13:33N 36°37' W 122°58'10 9.8
2014-Oct-14 12:33N 36°47' W 122°57'10 9.9
2014-Oct-14 11:32N 36°57' W 122°55'1110.9
2014-Oct-14 10:33N 37°07' W 122°51'1212.1
2014-Oct-14 09:33N 37°18' W 122°44'1211.8
2014-Oct-14 08:33N 37°30' W 122°43'1211.6
2014-Oct-14 07:33N 37°41' W 122°43'9 9.5
2014-Oct-14 06:33N 37°47' W 122°34'8 7.7
2014-Oct-14 05:33N 37°48' W 122°24'0 0.0
2014-Oct-14 04:32N 37°48' W 122°24'0 0.0
2014-Oct-14 03:32N 37°48' W 122°24'0 0.0
2014-Oct-14 02:31N 37°48' W 122°24'0 0.0
2014-Oct-14 01:33N 37°48' W 122°24'0 0.0
2014-Oct-14 00:33N 37°48' W 122°24'0 0.0
2014-Oct-13 23:33N 37°48' W 122°24'0 0.0
2014-Oct-13 22:33N 37°48' W 122°24'0 0.0
2014-Oct-13 21:32N 37°48' W 122°24'0 0.0
2014-Oct-13 20:32N 37°48' W 122°24'0 0.0
2014-Oct-13 19:31N 37°48' W 122°24'0 0.0
2014-Oct-13 18:28N 37°48' W 122°24'0 0.0
2014-Oct-13 17:33N 37°48' W 122°24'0 0.0
2014-Oct-13 16:33N 37°48' W 122°24'0 0.0
2014-Oct-13 15:26N 37°48' W 122°24'0 0.0
2014-Oct-13 14:32N 37°48' W 122°24'0 0.2
2014-Oct-13 13:33N 37°48' W 122°24'7 7.3
2014-Oct-13 12:33N 37°47' W 122°33'10 9.8
2014-Oct-13 11:33N 37°39' W 122°40'1010.4
2014-Oct-13 10:33N 37°29' W 122°40'10 9.7
2014-Oct-13 09:33N 37°19' W 122°40'1010.4
2014-Oct-13 08:33N 37°10' W 122°45'1110.9
2014-Oct-13 07:33N 36°60' W 122°51'1111.0
2014-Oct-13 06:33N 36°49' W 122°53'1010.4
2014-Oct-13 05:33N 36°38' W 122°52'1110.6
2014-Oct-13 04:34N 36°28' W 122°48'1010.1
2014-Oct-13 03:33N 36°19' W 122°43'1010.1
2014-Oct-13 02:33N 36°10' W 122°39'1010.3
2014-Oct-13 01:33N 36°02' W 122°31'1110.9
2014-Oct-13 00:34N 35°53' W 122°23'1110.7
2014-Oct-12 23:34N 35°44' W 122°16'1010.3
2014-Oct-12 22:34N 35°35' W 122°10'1010.4
2014-Oct-12 21:34N 35°25' W 122°04'1111.0
2014-Oct-12 20:33N 35°16' W 121°57'1111.3
2014-Oct-12 19:34N 35°06' W 121°51'1111.3
2014-Oct-12 18:33N 34°56' W 121°44'1211.7
2014-Oct-12 17:34N 34°46' W 121°37'1212.0
2014-Oct-12 16:34N 34°35' W 121°30'1211.7
2014-Oct-12 15:33N 34°25' W 121°23'1111.3
2014-Oct-12 14:33N 34°15' W 121°17'1111.1
2014-Oct-12 13:34N 34°06' W 121°10'1211.2
2014-Oct-12 12:30N 33°55' W 121°03'1111.2
2014-Oct-12 11:33N 33°46' W 120°57'1010.5
2014-Oct-12 10:34N 33°38' W 120°49'1110.7
2014-Oct-12 09:33N 33°34' W 120°37'1111.1
2014-Oct-12 08:34N 33°33' W 120°24'1312.6
2014-Oct-12 07:33N 33°35' W 120°09'1313.2
2014-Oct-12 06:33N 33°37' W 119°53'1413.0
2014-Oct-12 05:27N 33°39' W 119°36'1312.6
2014-Oct-12 04:24N 33°41' W 119°20'1112.9
2014-Oct-12 03:34N 33°43' W 119°08'1313.1
2014-Oct-12 02:33N 33°42' W 118°52'1313.0
2014-Oct-12 01:34N 33°42' W 118°36'1312.5
2014-Oct-12 00:33N 33°38' W 118°21'7 6.8
2014-Oct-11 23:33N 33°44' W 118°16'1 1.2
2014-Oct-11 22:31N 33°45' W 118°17'0 0.0
2014-Oct-11 21:29N 33°45' W 118°17'0 0.0
2014-Oct-11 20:31N 33°45' W 118°17'0 0.0
2014-Oct-11 19:10N 33°45' W 118°17'0 0.0
2014-Oct-11 18:31N 33°45' W 118°17'0 0.0
2014-Oct-11 17:09N 33°45' W 118°17'0 0.0
2014-Oct-11 16:33N 33°45' W 118°17'0 0.0
2014-Oct-11 15:32N 33°45' W 118°17'0 0.0
2014-Oct-11 14:32N 33°45' W 118°17'0 0.0
2014-Oct-11 13:31N 33°45' W 118°17'17 8.0
2014-Oct-11 11:26N 33°30' W 118°07'1011.4
2014-Oct-11 10:33N 33°21' W 118°03'1111.4
2014-Oct-11 09:33N 33°10' W 117°57'1111.1
2014-Oct-11 08:33N 33°00' W 117°52'1111.3
2014-Oct-11 07:33N 32°49' W 117°49'1111.4
2014-Oct-11 06:33N 32°38' W 117°46'1111.5
2014-Oct-11 05:33N 32°28' W 117°40'1312.9
2014-Oct-11 04:33N 32°17' W 117°31'1313.1
2014-Oct-11 03:33N 32°08' W 117°20'1313.3
2014-Oct-11 02:33N 32°00' W 117°07'1413.1
2014-Oct-11 01:31N 31°55' W 116°53'10 0.7
2014-Oct-10 12:17N 31°45' W 116°49'20 9.6
2014-Oct-10 10:09N 31°37' W 117°11'9 9.3
2014-Oct-10 09:12N 31°41' W 117°21'6 9.8
2014-Oct-10 08:33N 31°44' W 117°28'18 9.1
2014-Oct-10 06:33N 31°60' W 117°38'23 9.4
2014-Oct-10 04:07N 32°22' W 117°31'5 8.9
2014-Oct-10 03:33N 32°26' W 117°28'11 9.2
2014-Oct-10 02:25N 32°33' W 117°19'910.6
2014-Oct-10 01:33N 32°41' W 117°14'4 3.5
2014-Oct-10 00:32N 32°43' W 117°10'0 0.0
2014-Oct-09 23:32N 32°43' W 117°10'0 0.0
2014-Oct-09 22:31N 32°43' W 117°10'0 0.0
2014-Oct-09 21:31N 32°43' W 117°10'0 0.0
2014-Oct-09 20:33N 32°43' W 117°10'0 0.0
2014-Oct-09 19:33N 32°43' W 117°10'0 0.0
2014-Oct-09 18:33N 32°43' W 117°10'0 0.0
2014-Oct-09 17:32N 32°43' W 117°10'0 0.0
2014-Oct-09 16:32N 32°43' W 117°10'0 0.0
2014-Oct-09 15:31N 32°43' W 117°10'0 0.0
2014-Oct-09 14:28N 32°43' W 117°10'1 1.2
2014-Oct-09 13:33N 32°43' W 117°12'8 8.5
2014-Oct-09 12:33N 32°36' W 117°18'1313.2
2014-Oct-09 11:33N 32°42' W 117°32'1414.0
2014-Oct-09 10:33N 32°53' W 117°43'1615.7
2014-Oct-09 09:33N 33°05' W 117°54'1616.0
2014-Oct-09 08:33N 33°18' W 118°05'1413.7
2014-Oct-09 07:34N 33°31' W 118°12'1312.6
2014-Oct-09 06:33N 33°38' W 118°24'1212.0
2014-Oct-09 05:34N 33°44' W 118°37'  

Dump ship's entire track history